Time;durP1;ratioP1;P1;durP2;ratioP2;P2;SDS_P1;SDS_P2;PMS_P1;PMS_P2;Temp;Humidity;BMP_temperature;BMP_pressure;BME280_temperature;BME280_humidity;BME280_pressure;Samples;Min_cycle;Max_cycle;Signal;HPM_P1;HPM_P2
2022/06/25 00:02:05;;;;;;;7.75;5.78;;;18.80;99.90;;;;;;5038540;28;37017;-76
2022/06/25 00:07:15;;;;;;;6.18;5.57;;;18.80;99.90;;;;;;5043944;28;39504;-76
2022/06/25 00:09:41;;;;;;;7.97;5.35;;;18.70;99.90;;;;;;5058236;28;39165;-77
2022/06/25 00:14:52;;;;;;;8.07;6.00;;;18.60;99.90;;;;;;5062854;27;40043;-76
2022/06/25 00:17:20;;;;;;;9.15;6.07;;;18.60;99.90;;;;;;5061973;27;39720;-77
2022/06/25 00:19:46;;;;;;;6.70;5.43;;;18.60;99.90;;;;;;5058034;28;39161;-77
2022/06/25 00:22:13;;;;;;;7.78;6.00;;;18.60;99.90;;;;;;5056843;27;38284;-76
2022/06/25 00:24:39;;;;;;;8.02;6.00;;;18.50;99.90;;;;;;5059141;28;41193;-77
2022/06/25 00:27:06;;;;;;;7.32;5.80;;;18.50;99.90;;;;;;5059721;27;38073;-77
2022/06/25 00:29:32;;;;;;;7.70;5.93;;;18.50;99.90;;;;;;5055580;28;40296;-77
2022/06/25 00:31:58;;;;;;;8.68;5.72;;;18.50;99.90;;;;;;5058704;28;38203;-77
2022/06/25 00:34:26;;;;;;;10.00;5.68;;;18.40;99.90;;;;;;5067856;27;39638;-77
2022/06/25 00:36:52;;;;;;;7.55;5.57;;;18.40;99.90;;;;;;5065410;27;38550;-76
2022/06/25 00:39:19;;;;;;;9.02;5.15;;;18.40;99.90;;;;;;5047561;28;39063;-75
2022/06/25 00:41:45;;;;;;;5.85;4.97;;;18.30;99.90;;;;;;5042841;28;36944;-76
2022/06/25 00:44:11;;;;;;;11.77;5.50;;;18.30;99.90;;;;;;5036300;28;37748;-76
2022/06/25 00:46:37;;;;;;;6.35;5.10;;;18.30;99.90;;;;;;5045072;28;39078;-76
2022/06/25 00:49:04;;;;;;;6.00;4.80;;;18.30;99.90;;;;;;5061724;27;39341;-77
2022/06/25 00:51:37;;;;;;;7.50;5.07;;;18.20;99.90;;;;;;5075962;27;38669;-76
2022/06/25 00:54:06;;;;;;;9.40;4.78;;;18.20;99.90;;;;;;5054380;27;39034;-76
2022/06/25 00:56:36;;;;;;;5.72;5.13;;;18.20;99.90;;;;;;5059774;27;39077;-76
2022/06/25 00:59:04;;;;;;;8.88;4.85;;;18.20;99.90;;;;;;5053637;27;38868;-77
2022/06/25 01:01:34;;;;;;;7.90;4.85;;;18.20;99.90;;;;;;5059627;28;37833;-78
2022/06/25 01:04:00;;;;;;;7.40;4.15;;;18.20;99.90;;;;;;5061039;28;40077;-78
2022/06/25 01:06:28;;;;;;;13.23;5.05;;;18.20;99.90;;;;;;5045455;28;47403;-78
2022/06/25 01:08:57;;;;;;;8.40;5.38;;;18.20;99.90;;;;;;5053067;28;38644;-78
2022/06/25 01:11:24;;;;;;;11.60;5.95;;;18.20;99.90;;;;;;5060549;28;36077;-78
2022/06/25 01:13:52;;;;;;;11.15;6.35;;;18.20;99.90;;;;;;5056110;27;40466;-79
2022/06/25 01:16:20;;;;;;;11.57;5.90;;;18.20;99.90;;;;;;5045122;28;39299;-78
2022/06/25 01:18:47;;;;;;;13.70;7.22;;;18.20;99.90;;;;;;5047076;28;38657;-78
2022/06/25 01:21:13;;;;;;;13.32;7.68;;;18.20;99.90;;;;;;5045915;28;37071;-78
2022/06/25 01:23:40;;;;;;;15.45;7.13;;;18.20;99.90;;;;;;5058904;28;40651;-78
2022/06/25 01:26:06;;;;;;;18.10;7.63;;;18.20;99.90;;;;;;5061676;27;39498;-78
2022/06/25 01:28:33;;;;;;;15.20;8.23;;;18.20;99.90;;;;;;5079354;27;39299;-78
2022/06/25 01:30:59;;;;;;;17.25;8.15;;;18.10;99.90;;;;;;5063978;27;36866;-77
2022/06/25 01:33:25;;;;;;;18.10;8.65;;;18.10;99.90;;;;;;5066483;27;38902;-78
2022/06/25 01:35:51;;;;;;;21.52;7.93;;;18.10;99.90;;;;;;5060027;28;39397;-78
2022/06/25 01:38:17;;;;;;;11.80;7.38;;;18.10;99.90;;;;;;5052101;27;37423;-78
2022/06/25 01:40:43;;;;;;;18.98;7.50;;;18.10;99.90;;;;;;5048351;28;37218;-77
2022/06/25 01:43:09;;;;;;;18.20;8.15;;;18.00;99.90;;;;;;5094397;27;40745;-78
2022/06/25 01:45:37;;;;;;;16.75;7.53;;;18.00;99.90;;;;;;5066637;28;39553;-78
2022/06/25 01:48:06;;;;;;;14.38;6.65;;;18.00;99.90;;;;;;5037694;28;38091;-78
2022/06/25 01:50:34;;;;;;;14.75;6.57;;;18.10;99.90;;;;;;5037970;28;38964;-78
2022/06/25 01:53:00;;;;;;;11.70;5.55;;;18.10;99.90;;;;;;5044974;28;39474;-77
2022/06/25 01:55:26;;;;;;;10.38;5.68;;;18.10;99.90;;;;;;5045342;28;38477;-78
2022/06/25 01:57:52;;;;;;;8.73;4.82;;;18.10;99.90;;;;;;5063189;27;40121;-77
2022/06/25 02:00:24;;;;;;;7.38;4.72;;;18.10;99.90;;;;;;5055382;27;37882;-77
2022/06/25 02:02:51;;;;;;;11.68;5.32;;;18.10;99.90;;;;;;5060490;27;38420;-78
2022/06/25 02:05:56;;;;;;;10.05;3.90;;;18.10;99.90;;;;;;5064181;28;39442;-77
2022/06/25 02:08:07;;;;;;;8.25;4.10;;;18.10;99.90;;;;;;5065338;27;38101;-77
2022/06/25 02:10:33;;;;;;;9.88;4.60;;;18.10;99.90;;;;;;5065682;28;38219;-77
2022/06/25 02:12:59;;;;;;;9.05;4.10;;;18.00;99.90;;;;;;5049242;27;39461;-78
2022/06/25 02:15:25;;;;;;;10.32;4.22;;;18.10;99.90;;;;;;5045719;28;38712;-77
2022/06/25 02:17:52;;;;;;;6.88;4.50;;;18.00;99.90;;;;;;5045470;28;38751;-77
2022/06/25 02:20:18;;;;;;;7.22;4.28;;;18.00;99.90;;;;;;5065624;28;37830;-77
2022/06/25 02:22:44;;;;;;;10.50;4.35;;;18.00;99.90;;;;;;5063490;27;38919;-77
2022/06/25 02:25:10;;;;;;;14.32;4.55;;;18.00;99.90;;;;;;5065068;27;39422;-77
2022/06/25 02:27:36;;;;;;;7.22;4.65;;;18.00;99.90;;;;;;5057496;27;38478;-77
2022/06/25 02:30:02;;;;;;;7.88;3.72;;;18.00;99.90;;;;;;5048232;28;39472;-77
2022/06/25 02:32:33;;;;;;;9.38;4.10;;;18.00;99.90;;;;;;5075916;28;39114;-77
2022/06/25 02:34:59;;;;;;;6.90;4.00;;;17.90;99.90;;;;;;5046354;28;38752;-76
2022/06/25 02:37:25;;;;;;;10.38;4.60;;;18.00;99.90;;;;;;5059528;27;38375;-77
2022/06/25 02:39:51;;;;;;;13.40;4.88;;;17.90;99.90;;;;;;5040895;28;37133;-76
2022/06/25 02:42:17;;;;;;;8.55;4.38;;;17.90;99.90;;;;;;5061604;28;40051;-77
2022/06/25 02:44:43;;;;;;;8.38;4.53;;;17.90;99.90;;;;;;5057550;28;39806;-78
2022/06/25 02:47:09;;;;;;;7.53;4.38;;;17.90;99.90;;;;;;5036703;28;39329;-77
2022/06/25 02:49:35;;;;;;;8.38;4.65;;;17.90;99.90;;;;;;5037040;28;37916;-77
2022/06/25 02:52:02;;;;;;;12.25;4.90;;;17.90;99.90;;;;;;5043575;28;38990;-78
2022/06/25 02:54:28;;;;;;;11.75;5.05;;;17.90;99.90;;;;;;5044007;28;38565;-77
2022/06/25 02:59:42;;;;;;;7.97;4.60;;;17.90;99.90;;;;;;5061527;27;49813;-76
2022/06/25 03:02:08;;;;;;;10.10;5.07;;;17.90;99.90;;;;;;5050522;28;39408;-79
2022/06/25 03:04:35;;;;;;;10.07;4.93;;;17.90;99.90;;;;;;5044291;28;38823;-77
2022/06/25 03:07:01;;;;;;;10.68;5.00;;;17.90;99.90;;;;;;5064907;27;39017;-77
2022/06/25 03:09:28;;;;;;;8.48;4.63;;;17.90;99.90;;;;;;5065534;28;37501;-77
2022/06/25 03:11:54;;;;;;;7.85;4.32;;;17.90;99.90;;;;;;5064796;28;39575;-77
2022/06/25 03:14:20;;;;;;;9.55;4.97;;;17.90;99.90;;;;;;5037071;28;39052;-77
2022/06/25 03:16:46;;;;;;;8.75;4.82;;;17.90;99.90;;;;;;5092527;27;37291;-78
2022/06/25 03:19:12;;;;;;;9.25;4.88;;;17.90;99.90;;;;;;5044868;28;38307;-77
2022/06/25 03:21:38;;;;;;;9.82;4.40;;;17.90;99.90;;;;;;5047841;28;39211;-77
2022/06/25 03:24:05;;;;;;;8.73;3.65;;;18.00;99.90;;;;;;5048168;27;39741;-77
2022/06/25 03:26:31;;;;;;;7.90;4.28;;;18.00;99.90;;;;;;5062594;28;37401;-77
2022/06/25 03:28:57;;;;;;;10.10;3.58;;;18.00;99.90;;;;;;5055270;28;38136;-77
2022/06/25 03:31:23;;;;;;;9.40;3.63;;;18.00;99.90;;;;;;5070057;28;39301;-77
2022/06/25 03:33:49;;;;;;;6.13;3.70;;;18.00;99.90;;;;;;5045743;28;39488;-77
2022/06/25 03:36:15;;;;;;;6.53;3.25;;;17.90;99.90;;;;;;5063880;27;39762;-78
2022/06/25 03:38:42;;;;;;;7.40;3.25;;;18.00;99.90;;;;;;5061014;28;37775;-77
2022/06/25 03:43:52;;;;;;;8.32;3.00;;;18.00;99.90;;;;;;5041624;28;38865;-76
2022/06/25 03:46:19;;;;;;;6.95;2.40;;;18.00;99.90;;;;;;5042182;28;38996;-79
2022/06/25 03:48:45;;;;;;;5.10;2.47;;;18.00;99.90;;;;;;5050024;28;37230;-77
2022/06/25 03:51:11;;;;;;;6.88;2.60;;;18.00;99.90;;;;;;5049060;28;40594;-77
2022/06/25 03:53:37;;;;;;;4.70;2.17;;;18.00;99.90;;;;;;5037694;28;38805;-76
2022/06/25 03:56:04;;;;;;;10.90;3.00;;;18.00;99.90;;;;;;5035775;28;39859;-76
2022/06/25 03:58:30;;;;;;;7.00;2.60;;;18.00;99.90;;;;;;5039194;28;37571;-77
2022/06/25 04:00:57;;;;;;;8.85;2.85;;;18.00;99.90;;;;;;5036275;28;39231;-79
2022/06/25 04:03:24;;;;;;;7.20;2.78;;;18.00;99.90;;;;;;5066345;28;39650;-78
2022/06/25 04:05:50;;;;;;;5.53;2.28;;;18.00;99.90;;;;;;5038383;28;38307;-78
2022/06/25 04:08:16;;;;;;;5.88;2.53;;;18.00;99.90;;;;;;5044508;28;37734;-78
2022/06/25 04:10:42;;;;;;;6.78;2.85;;;18.00;99.90;;;;;;5044993;28;38845;-78
2022/06/25 04:13:09;;;;;;;6.35;3.00;;;18.00;99.90;;;;;;5045654;28;38527;-77
2022/06/25 04:15:36;;;;;;;7.05;2.95;;;18.00;99.90;;;;;;5041135;28;38312;-77
2022/06/25 04:18:03;;;;;;;5.07;3.03;;;17.90;99.90;;;;;;5044261;28;37174;-78
2022/06/25 04:20:29;;;;;;;6.45;2.65;;;17.90;99.90;;;;;;5041029;28;39565;-77
2022/06/25 04:22:55;;;;;;;7.05;3.10;;;18.00;99.90;;;;;;5058168;28;39307;-77
2022/06/25 04:25:22;;;;;;;7.22;2.80;;;18.00;99.90;;;;;;5040007;28;37659;-77
2022/06/25 04:30:32;;;;;;;9.68;3.67;;;18.00;99.90;;;;;;5050495;28;48669;-77
2022/06/25 04:32:59;;;;;;;6.28;2.83;;;18.00;99.90;;;;;;5057774;28;37810;-77
2022/06/25 04:35:25;;;;;;;9.40;3.08;;;18.00;99.90;;;;;;5046297;28;38361;-77
2022/06/25 04:37:51;;;;;;;8.45;3.10;;;17.90;99.90;;;;;;5060436;27;37474;-77
2022/06/25 04:40:18;;;;;;;7.75;3.15;;;17.90;99.90;;;;;;5072427;28;39553;-77
2022/06/25 04:42:45;;;;;;;9.32;3.35;;;18.00;99.90;;;;;;5057896;27;39202;-77
2022/06/25 04:45:12;;;;;;;11.25;3.55;;;18.00;99.90;;;;;;5075413;27;39235;-78
2022/06/25 04:47:38;;;;;;;7.88;3.33;;;18.00;99.90;;;;;;5043178;28;36795;-78
2022/06/25 04:50:05;;;;;;;7.93;3.00;;;18.10;99.90;;;;;;5040754;28;40675;-77
2022/06/25 04:52:31;;;;;;;11.27;3.35;;;18.00;99.90;;;;;;5041106;28;38683;-77
2022/06/25 04:54:58;;;;;;;11.20;4.18;;;18.10;99.90;;;;;;5039194;28;39141;-77
2022/06/25 04:57:24;;;;;;;10.70;3.90;;;18.10;99.90;;;;;;5038415;28;38101;-77
2022/06/25 04:59:50;;;;;;;11.38;3.97;;;18.20;99.90;;;;;;5044452;28;40392;-77
2022/06/25 05:02:16;;;;;;;6.25;2.65;;;18.20;99.90;;;;;;5051026;28;37721;-77
2022/06/25 05:04:42;;;;;;;9.68;3.17;;;18.20;99.90;;;;;;5059243;28;37856;-77
2022/06/25 05:07:08;;;;;;;10.60;3.17;;;18.30;99.90;;;;;;5067638;27;37518;-77
2022/06/25 05:09:37;;;;;;;5.40;2.60;;;18.30;99.90;;;;;;5060820;27;38734;-78
2022/06/25 05:12:03;;;;;;;7.38;3.15;;;18.40;99.90;;;;;;5055064;28;39446;-78
2022/06/25 05:14:29;;;;;;;8.88;2.75;;;18.50;99.90;;;;;;5053428;28;37552;-78
2022/06/25 05:16:56;;;;;;;6.40;2.65;;;18.50;99.90;;;;;;5060013;28;37703;-77
2022/06/25 05:19:22;;;;;;;11.27;2.78;;;18.60;99.90;;;;;;5059599;28;40471;-77
2022/06/25 05:21:48;;;;;;;13.10;3.00;;;18.60;99.90;;;;;;5059782;28;39528;-77
2022/06/25 05:24:14;;;;;;;5.03;2.53;;;18.60;99.90;;;;;;5051376;27;39031;-78
2022/06/25 05:26:40;;;;;;;5.45;2.55;;;18.70;99.90;;;;;;5058707;27;38313;-78
2022/06/25 05:29:06;;;;;;;7.57;3.20;;;18.70;99.90;;;;;;5042127;27;38941;-77
2022/06/25 05:31:32;;;;;;;8.63;3.20;;;18.80;99.90;;;;;;5052569;28;38847;-77
2022/06/25 05:33:59;;;;;;;6.97;3.00;;;18.80;99.90;;;;;;5058560;28;39304;-76
2022/06/25 05:36:25;;;;;;;6.45;2.92;;;19.00;99.90;;;;;;5062584;27;38983;-76
2022/06/25 05:38:51;;;;;;;7.97;3.20;;;19.10;99.90;;;;;;5058849;27;38988;-77
2022/06/25 05:41:17;;;;;;;6.93;2.42;;;19.20;99.90;;;;;;5054251;28;40641;-76
2022/06/25 05:43:43;;;;;;;5.15;3.05;;;19.30;99.90;;;;;;5083669;27;37427;-76
2022/06/25 05:46:09;;;;;;;8.23;3.13;;;19.10;99.90;;;;;;5057181;28;39017;-76
2022/06/25 05:48:36;;;;;;;7.88;2.97;;;19.30;99.90;;;;;;5055307;28;38884;-75
2022/06/25 05:51:02;;;;;;;9.48;3.03;;;19.40;99.90;;;;;;5074831;28;39341;-76
2022/06/25 05:53:29;;;;;;;6.28;2.92;;;19.50;99.90;;;;;;5087131;27;42038;-76
2022/06/25 05:55:55;;;;;;;4.75;2.70;;;19.50;99.90;;;;;;5047088;27;38295;-76
2022/06/25 05:58:22;;;;;;;8.00;2.72;;;19.40;99.90;;;;;;5078317;27;39793;-75
2022/06/25 06:00:48;;;;;;;4.25;2.03;;;19.60;99.90;;;;;;5051075;28;39071;-75
2022/06/25 06:03:14;;;;;;;12.00;2.78;;;20.00;99.90;;;;;;5064029;27;38508;-75
2022/06/25 06:05:40;;;;;;;6.63;2.72;;;20.10;99.90;;;;;;5067868;27;37697;-75
2022/06/25 06:08:07;;;;;;;6.57;2.28;;;19.80;99.90;;;;;;5062231;27;39354;-76
2022/06/25 06:10:34;;;;;;;7.30;2.25;;;19.80;99.90;;;;;;5087679;27;39358;-77
2022/06/25 06:13:00;;;;;;;3.72;2.10;;;19.90;99.90;;;;;;5042521;28;39308;-75
2022/06/25 06:15:26;;;;;;;3.15;1.40;;;19.80;99.90;;;;;;5064819;27;38303;-75
2022/06/25 06:17:53;;;;;;;6.00;2.13;;;19.90;99.90;;;;;;5044545;28;39111;-75
2022/06/25 06:20:19;;;;;;;8.90;1.90;;;20.00;99.90;;;;;;5044437;28;39551;-75
2022/06/25 06:22:45;;;;;;;6.45;1.75;;;20.20;99.90;;;;;;5059962;27;38457;-75
2022/06/25 06:25:11;;;;;;;6.63;2.13;;;20.20;99.90;;;;;;5087027;27;37696;-75
2022/06/25 06:27:37;;;;;;;4.97;1.90;;;19.90;99.90;;;;;;5060931;27;38430;-75
2022/06/25 06:30:03;;;;;;;8.02;1.83;;;19.80;99.90;;;;;;5047168;28;39178;-75
2022/06/25 06:32:29;;;;;;;5.03;1.77;;;19.80;99.90;;;;;;5051244;28;37690;-75
2022/06/25 06:34:55;;;;;;;6.50;1.33;;;19.70;99.90;;;;;;5039772;28;36862;-75
2022/06/25 06:37:21;;;;;;;4.88;1.40;;;19.70;99.90;;;;;;5036674;28;39573;-75
2022/06/25 06:39:47;;;;;;;4.50;2.17;;;19.80;99.90;;;;;;5037343;28;40210;-76
2022/06/25 06:42:14;;;;;;;3.33;1.38;;;19.90;99.90;;;;;;5036037;28;38299;-75
2022/06/25 06:44:40;;;;;;;4.90;2.35;;;19.80;99.90;;;;;;5042713;28;37348;-75
2022/06/25 06:47:06;;;;;;;3.42;2.10;;;19.60;99.90;;;;;;5057123;27;39465;-76
2022/06/25 06:49:32;;;;;;;3.55;1.23;;;19.50;99.90;;;;;;5052470;28;38971;-76
2022/06/25 06:51:58;;;;;;;8.38;1.80;;;19.40;99.90;;;;;;5087031;27;40739;-75
2022/06/25 06:54:24;;;;;;;2.53;1.40;;;19.30;99.90;;;;;;5037831;27;35948;-76
2022/06/25 06:56:50;;;;;;;4.20;1.42;;;19.30;99.90;;;;;;5035846;28;38991;-75
2022/06/25 06:59:17;;;;;;;2.63;1.38;;;19.10;99.90;;;;;;5036172;28;41591;-75
2022/06/25 07:01:43;;;;;;;4.43;1.27;;;19.10;99.90;;;;;;5035212;28;39875;-75
2022/06/25 07:04:09;;;;;;;2.63;1.45;;;19.00;99.90;;;;;;5035447;28;36768;-75
2022/06/25 07:06:35;;;;;;;2.80;1.55;;;19.10;99.90;;;;;;5032746;28;41482;-75
2022/06/25 07:09:01;;;;;;;2.85;1.50;;;19.20;99.90;;;;;;5035365;28;40082;-75
2022/06/25 07:11:30;;;;;;;2.83;1.30;;;19.20;99.90;;;;;;5034076;28;46311;-75
2022/06/25 07:13:58;;;;;;;2.67;1.55;;;19.30;99.90;;;;;;5041650;28;37603;-75
2022/06/25 07:16:24;;;;;;;6.22;1.42;;;19.50;99.90;;;;;;5054350;28;41328;-76
2022/06/25 07:18:51;;;;;;;4.00;1.50;;;19.40;99.90;;;;;;5034670;28;39429;-76
2022/06/25 07:21:17;;;;;;;2.67;1.40;;;19.50;99.90;;;;;;5038487;28;39089;-75
2022/06/25 07:23:43;;;;;;;3.45;1.45;;;19.50;99.90;;;;;;5045013;28;36787;-76
2022/06/25 07:26:09;;;;;;;5.50;1.40;;;19.50;99.90;;;;;;5089207;27;38019;-75
2022/06/25 07:28:36;;;;;;;3.92;1.27;;;19.50;99.90;;;;;;5043120;27;39489;-76
2022/06/25 07:31:02;;;;;;;2.63;1.50;;;19.50;99.90;;;;;;5054925;28;38585;-75
2022/06/25 07:33:31;;;;;;;3.97;1.77;;;19.60;99.90;;;;;;5063721;27;38326;-75
2022/06/25 07:35:58;;;;;;;2.30;1.40;;;19.60;99.90;;;;;;5070376;27;39077;-75
2022/06/25 07:38:24;;;;;;;4.88;1.40;;;19.50;99.90;;;;;;5054635;28;39106;-76
2022/06/25 07:40:51;;;;;;;3.63;1.65;;;19.40;99.90;;;;;;5049790;28;38956;-75
2022/06/25 07:43:17;;;;;;;4.13;1.38;;;19.40;99.90;;;;;;5046654;27;37750;-76
2022/06/25 07:45:43;;;;;;;2.65;1.30;;;19.40;99.90;;;;;;5070099;27;40395;-75
2022/06/25 07:48:09;;;;;;;3.67;1.48;;;19.30;99.90;;;;;;5057217;28;38607;-75
2022/06/25 07:53:20;;;;;;;4.13;1.30;;;19.20;99.90;;;;;;5044010;28;37742;-75
2022/06/25 07:55:46;;;;;;;6.20;1.85;;;19.10;99.90;;;;;;5040311;28;39482;-76
2022/06/25 07:58:13;;;;;;;5.93;1.60;;;19.00;99.90;;;;;;5045913;28;38788;-75
2022/06/25 08:00:39;;;;;;;3.15;1.40;;;18.90;99.90;;;;;;5038418;28;38195;-75
2022/06/25 08:03:05;;;;;;;5.20;1.67;;;18.90;99.90;;;;;;5043879;28;37430;-74
2022/06/25 08:05:33;;;;;;;6.13;1.70;;;18.90;99.90;;;;;;5058549;28;39394;-75
2022/06/25 08:08:00;;;;;;;4.47;1.70;;;18.90;99.90;;;;;;5039691;28;38534;-75
2022/06/25 08:10:26;;;;;;;5.35;1.80;;;18.90;99.90;;;;;;5041812;28;39146;-74
2022/06/25 08:12:52;;;;;;;4.10;2.10;;;19.10;99.90;;;;;;5040123;28;37351;-74
2022/06/25 08:15:21;;;;;;;3.65;2.13;;;19.10;99.90;;;;;;5037616;28;38793;-75
2022/06/25 08:17:47;;;;;;;3.63;2.10;;;19.00;99.90;;;;;;5041905;28;39287;-75
2022/06/25 08:20:13;;;;;;;5.05;1.67;;;19.00;99.90;;;;;;5051952;28;39104;-75
2022/06/25 08:22:40;;;;;;;4.40;1.50;;;18.80;99.90;;;;;;5048022;28;39014;-75
2022/06/25 08:25:09;;;;;;;3.05;1.35;;;18.70;99.90;;;;;;5055047;27;39784;-76
2022/06/25 08:27:50;;;;;;;2.85;1.02;;;18.60;99.90;;;;;;5038992;28;39438;-75
2022/06/25 08:30:20;;;;;;;3.33;1.05;;;18.50;99.90;;;;;;5055492;28;38817;-75
2022/06/25 08:32:47;;;;;;;1.13;1.02;;;18.50;99.90;;;;;;5043175;28;38607;-75
2022/06/25 08:35:14;;;;;;;1.73;1.20;;;18.60;99.90;;;;;;5042241;28;39479;-75
2022/06/25 08:37:44;;;;;;;2.78;1.20;;;18.70;99.90;;;;;;5045151;28;39784;-75
2022/06/25 08:40:10;;;;;;;2.05;1.00;;;18.50;99.90;;;;;;5037080;28;39119;-76
2022/06/25 08:42:37;;;;;;;2.00;0.82;;;18.30;99.90;;;;;;5037695;28;37494;-75
2022/06/25 08:45:03;;;;;;;1.52;0.88;;;18.30;99.90;;;;;;5040351;28;37866;-75
2022/06/25 08:47:30;;;;;;;3.50;1.02;;;18.40;99.90;;;;;;5041944;28;39900;-75
2022/06/25 08:49:57;;;;;;;2.72;0.93;;;18.30;99.90;;;;;;5035151;28;39497;-75
2022/06/25 08:52:27;;;;;;;4.50;0.80;;;18.40;99.90;;;;;;5038360;28;38406;-76
2022/06/25 08:54:54;;;;;;;2.20;0.70;;;18.30;99.90;;;;;;5057097;28;37365;-76
2022/06/25 08:57:21;;;;;;;2.53;0.90;;;18.20;99.90;;;;;;5044985;28;39175;-76
2022/06/25 08:59:48;;;;;;;2.38;1.10;;;18.20;99.90;;;;;;5040444;28;40042;-76
2022/06/25 09:02:14;;;;;;;1.75;0.90;;;18.10;99.90;;;;;;5043643;28;37265;-76
2022/06/25 09:04:40;;;;;;;4.88;0.70;;;18.10;99.90;;;;;;5042979;28;39296;-77
2022/06/25 09:07:14;;;;;;;3.05;1.10;;;18.10;99.90;;;;;;5055083;28;40139;-76
2022/06/25 09:09:45;;;;;;;2.33;0.82;;;18.10;99.90;;;;;;5043468;28;39169;-76
2022/06/25 09:12:15;;;;;;;5.13;0.93;;;18.20;99.90;;;;;;5043580;28;37233;-76
2022/06/25 09:14:41;;;;;;;4.50;1.05;;;18.20;99.90;;;;;;5043388;28;39636;-76
2022/06/25 09:17:12;;;;;;;2.83;0.98;;;18.20;99.90;;;;;;5058830;28;39902;-77
2022/06/25 09:19:47;;;;;;;2.92;0.90;;;18.40;99.90;;;;;;5047156;28;38882;-76
2022/06/25 09:22:17;;;;;;;5.22;1.30;;;18.50;99.90;;;;;;5045689;28;38397;-76
2022/06/25 09:24:58;;;;;;;4.57;1.58;;;18.60;99.90;;;;;;5059301;27;39630;-76
2022/06/25 09:27:33;;;;;;;2.97;1.55;;;18.60;99.90;;;;;;5076941;28;40419;-76
2022/06/25 09:30:09;;;;;;;3.97;1.30;;;18.60;99.90;;;;;;5087849;28;39012;-76
2022/06/25 09:32:48;;;;;;;3.88;1.42;;;18.60;99.90;;;;;;5061868;28;47261;-76
2022/06/25 09:35:33;;;;;;;6.32;1.45;;;18.60;99.90;;;;;;5061951;28;40683;-76
2022/06/25 09:38:09;;;;;;;5.13;1.30;;;18.60;99.90;;;;;;5043820;28;39084;-76
2022/06/25 09:40:38;;;;;;;5.57;1.27;;;18.70;99.90;;;;;;5058216;27;48645;-76
2022/06/25 09:43:15;;;;;;;3.40;1.60;;;18.80;99.90;;;;;;5041815;28;36028;-77
2022/06/25 09:45:53;;;;;;;3.05;1.25;;;19.10;99.90;;;;;;5047495;28;42116;-76
2022/06/25 09:48:29;;;;;;;5.68;1.48;;;19.30;99.90;;;;;;5048401;28;38562;-76
2022/06/25 09:51:11;;;;;;;3.60;1.05;;;19.60;99.90;;;;;;5063049;28;40159;-76
2022/06/25 09:53:52;;;;;;;3.55;1.40;;;20.00;99.90;;;;;;5052553;27;48602;-76
2022/06/25 09:56:21;;;;;;;3.90;1.15;;;20.30;99.90;;;;;;5052170;28;38846;-77
2022/06/25 09:58:48;;;;;;;5.15;1.55;;;20.30;99.90;;;;;;5064829;28;39772;-76
2022/06/25 10:01:17;;;;;;;4.07;1.20;;;20.30;99.90;;;;;;5065660;27;39602;-77
2022/06/25 10:03:44;;;;;;;5.82;1.80;;;20.40;99.90;;;;;;5068518;28;38524;-77
2022/06/25 10:06:14;;;;;;;5.45;1.52;;;20.70;99.90;;;;;;5059600;28;39707;-76
2022/06/25 10:08:45;;;;;;;4.00;1.40;;;20.60;99.90;;;;;;5060102;28;39014;-76
2022/06/25 10:11:12;;;;;;;4.82;1.38;;;21.10;99.90;;;;;;5040431;28;39738;-76
2022/06/25 10:13:40;;;;;;;4.90;1.40;;;21.10;99.90;;;;;;5048667;28;37526;-77
2022/06/25 10:16:08;;;;;;;5.38;1.55;;;21.40;99.90;;;;;;5046797;28;39567;-76
2022/06/25 10:18:36;;;;;;;2.13;1.05;;;21.50;99.90;;;;;;5049266;28;38904;-77
2022/06/25 10:21:03;;;;;;;5.40;1.58;;;21.90;99.90;;;;;;5046990;28;39265;-77
2022/06/25 10:23:29;;;;;;;5.88;1.40;;;22.60;99.90;;;;;;5047358;28;37997;-77
2022/06/25 10:25:56;;;;;;;3.42;1.30;;;22.90;99.90;;;;;;5062846;28;39025;-77
2022/06/25 10:28:28;;;;;;;3.67;1.30;;;23.20;99.90;;;;;;5053105;28;40755;-76
2022/06/25 10:30:58;;;;;;;5.03;1.55;;;22.60;99.90;;;;;;5046668;28;38580;-77
2022/06/25 10:33:29;;;;;;;4.22;1.38;;;22.20;99.90;;;;;;5047442;28;35938;-76
2022/06/25 10:35:58;;;;;;;4.82;1.90;;;22.20;99.90;;;;;;5045231;28;38314;-77
2022/06/25 10:38:26;;;;;;;3.70;1.40;;;22.50;99.90;;;;;;5042662;28;37701;-76
2022/06/25 10:40:56;;;;;;;2.10;1.30;;;23.00;99.90;;;;;;5054255;28;37438;-77
2022/06/25 10:43:41;;;;;;;3.58;1.40;;;22.50;99.90;;;;;;5066785;27;38949;-77
2022/06/25 10:46:23;;;;;;;4.80;1.58;;;22.10;99.90;;;;;;5067865;27;39771;-78
2022/06/25 10:49:04;;;;;;;2.60;1.23;;;22.10;99.90;;;;;;5063241;28;39540;-77
2022/06/25 10:51:35;;;;;;;2.28;1.33;;;22.60;99.90;;;;;;5069254;28;47570;-76
2022/06/25 10:54:03;;;;;;;2.35;1.10;;;22.70;99.90;;;;;;5045877;28;36813;-79
2022/06/25 10:56:50;;;;;;;5.22;1.90;;;22.30;99.90;;;;;;5046912;28;39358;-78
2022/06/25 10:59:46;;;;;;;4.30;1.77;;;21.50;99.90;;;;;;5043914;28;41818;-77
2022/06/25 11:02:20;;;;;;;3.60;1.40;;;21.40;99.90;;;;;;5042781;28;38517;-78
2022/06/25 11:04:52;;;;;;;3.10;1.30;;;22.20;99.90;;;;;;5048194;28;37323;-78
2022/06/25 11:07:21;;;;;;;2.90;1.85;;;23.10;99.90;;;;;;5052583;28;40605;-77
2022/06/25 11:09:54;;;;;;;2.53;1.10;;;22.70;99.90;;;;;;5046524;28;39801;-77
2022/06/25 11:12:22;;;;;;;2.65;1.33;;;22.70;99.90;;;;;;5055004;28;39075;-77
2022/06/25 11:15:05;;;;;;;5.90;2.28;;;23.30;99.90;;;;;;5042421;28;37407;-77
2022/06/25 11:17:31;;;;;;;2.55;1.30;;;23.30;99.90;;;;;;5066472;27;48507;-77
2022/06/25 11:20:11;;;;;;;3.05;1.60;;;23.70;99.90;;;;;;5056208;28;38064;-77
2022/06/25 11:22:48;;;;;;;4.50;1.60;;;22.70;99.90;;;;;;5053884;28;47952;-77
2022/06/25 11:31:11;;;;;;;2.67;1.70;;;22.20;99.90;;;;;;4989858;28;50252;-76
2022/06/25 11:33:37;;;;;;;3.58;1.95;;;21.70;99.90;;;;;;5000350;28;39496;-77
2022/06/25 11:36:13;;;;;;;4.15;1.50;;;22.00;99.90;;;;;;5036847;28;39329;-76
2022/06/25 11:38:41;;;;;;;3.55;1.50;;;22.00;99.90;;;;;;5060909;28;40398;-77
2022/06/25 11:41:07;;;;;;;3.08;1.20;;;22.30;99.90;;;;;;5066415;27;38718;-77
2022/06/25 11:43:34;;;;;;;1.45;0.70;;;22.50;99.90;;;;;;5064880;28;38981;-76
2022/06/25 11:46:01;;;;;;;2.28;1.13;;;23.00;99.90;;;;;;5062688;28;38074;-76
2022/06/25 11:48:31;;;;;;;3.75;1.80;;;23.20;99.90;;;;;;5065062;28;46953;-78
2022/06/25 11:51:02;;;;;;;2.45;1.42;;;22.70;99.90;;;;;;5050229;27;39888;-77
2022/06/25 11:53:29;;;;;;;5.07;1.98;;;22.40;99.90;;;;;;5043710;28;47320;-78
2022/06/25 11:55:59;;;;;;;4.18;2.50;;;22.60;99.90;;;;;;5042371;28;38051;-77
2022/06/25 11:58:36;;;;;;;3.28;1.23;;;22.60;99.90;;;;;;5056547;28;40647;-77
2022/06/25 12:01:04;;;;;;;3.15;1.10;;;22.80;99.90;;;;;;5063766;28;39004;-77
2022/06/25 12:03:32;;;;;;;3.17;1.25;;;23.60;99.90;;;;;;5062144;27;40000;-77
2022/06/25 12:06:00;;;;;;;1.92;0.88;;;23.70;99.90;;;;;;5045922;28;37220;-77
2022/06/25 12:08:28;;;;;;;4.70;1.05;;;24.00;99.90;;;;;;5043117;28;39836;-77
2022/06/25 12:10:58;;;;;;;6.05;1.30;;;23.50;99.90;;;;;;5044612;28;39025;-77
2022/06/25 12:13:29;;;;;;;4.07;1.20;;;22.70;99.90;;;;;;5045977;28;39278;-77
2022/06/25 12:15:59;;;;;;;3.83;1.30;;;22.70;99.90;;;;;;5042127;28;38885;-77
2022/06/25 12:18:41;;;;;;;2.90;1.50;;;23.10;99.90;;;;;;5046303;28;38545;-77
2022/06/25 12:21:08;;;;;;;5.80;1.42;;;22.60;99.90;;;;;;5048808;28;38815;-77
2022/06/25 12:23:55;;;;;;;8.23;1.55;;;23.10;99.90;;;;;;5041776;28;38591;-77
2022/06/25 12:26:33;;;;;;;1.70;1.13;;;23.40;99.90;;;;;;5060318;28;38059;-77
2022/06/25 12:29:14;;;;;;;2.25;0.95;;;23.20;99.90;;;;;;5041891;28;39768;-78
2022/06/25 12:31:42;;;;;;;2.90;1.20;;;23.40;99.90;;;;;;5056204;28;47138;-77
2022/06/25 12:34:09;;;;;;;2.75;1.00;;;23.40;99.90;;;;;;5044187;28;39735;-78
2022/06/25 12:36:39;;;;;;;2.28;1.17;;;23.40;99.90;;;;;;5041070;28;37602;-78
2022/06/25 12:39:35;;;;;;;3.97;1.45;;;23.20;99.90;;;;;;5044243;28;39036;-78
2022/06/25 12:42:09;;;;;;;2.80;1.38;;;22.90;99.90;;;;;;5044358;28;39031;-78
2022/06/25 12:44:39;;;;;;;2.05;1.25;;;22.80;99.90;;;;;;5046873;28;38687;-79
2022/06/25 12:47:08;;;;;;;2.75;1.05;;;23.10;99.90;;;;;;5036304;28;37359;-78
2022/06/25 12:49:40;;;;;;;2.50;1.00;;;23.20;99.90;;;;;;5040340;28;39824;-77
2022/06/25 12:52:08;;;;;;;1.98;1.23;;;23.40;99.90;;;;;;5050085;28;20046;-77
2022/06/25 12:54:46;;;;;;;2.60;1.50;;;23.50;99.90;;;;;;5037531;28;38026;-79
2022/06/25 12:57:21;;;;;;;2.75;1.30;;;23.90;99.90;;;;;;5036827;28;37814;-77
2022/06/25 12:59:48;;;;;;;2.45;1.00;;;23.70;99.90;;;;;;5039547;28;39043;-77
2022/06/25 13:02:14;;;;;;;2.38;1.35;;;23.60;99.90;;;;;;5037237;28;39891;-77
2022/06/25 13:04:42;;;;;;;1.70;0.82;;;23.50;99.90;;;;;;5053397;27;39259;-77
2022/06/25 13:07:11;;;;;;;2.83;1.00;;;23.40;99.90;;;;;;5060846;28;38425;-77
2022/06/25 13:09:43;;;;;;;2.08;0.93;;;23.40;99.90;;;;;;5054261;28;38815;-76
2022/06/25 13:12:10;;;;;;;4.20;1.30;;;23.10;99.90;;;;;;5064441;27;40658;-76
2022/06/25 13:14:36;;;;;;;2.90;1.30;;;22.80;99.90;;;;;;5060938;27;38206;-76